sensor_id;sensor_type;location;lat;lon;timestamp;P1;durP1;ratioP1;P2;durP2;ratioP2
84834;SDS011;75078;42.636;23.198;2024-03-22T00:01:52;9.05;;;6.05;;
84834;SDS011;75078;42.636;23.198;2024-03-22T00:04:18;12.23;;;6.03;;
84834;SDS011;75078;42.636;23.198;2024-03-22T00:06:45;5.90;;;3.75;;
84834;SDS011;75078;42.636;23.198;2024-03-22T00:09:12;8.50;;;4.28;;
84834;SDS011;75078;42.636;23.198;2024-03-22T00:11:41;9.52;;;4.45;;
84834;SDS011;75078;42.636;23.198;2024-03-22T00:14:07;10.20;;;5.88;;
84834;SDS011;75078;42.636;23.198;2024-03-22T00:16:33;3.63;;;2.50;;
84834;SDS011;75078;42.636;23.198;2024-03-22T00:18:59;4.15;;;3.80;;
84834;SDS011;75078;42.636;23.198;2024-03-22T00:21:24;5.25;;;3.00;;
84834;SDS011;75078;42.636;23.198;2024-03-22T00:23:50;5.18;;;3.55;;
84834;SDS011;75078;42.636;23.198;2024-03-22T00:26:15;4.82;;;3.25;;
84834;SDS011;75078;42.636;23.198;2024-03-22T00:28:41;3.38;;;3.03;;
84834;SDS011;75078;42.636;23.198;2024-03-22T00:31:07;3.60;;;3.30;;
84834;SDS011;75078;42.636;23.198;2024-03-22T00:33:33;10.75;;;4.43;;
84834;SDS011;75078;42.636;23.198;2024-03-22T00:35:58;6.97;;;3.95;;
84834;SDS011;75078;42.636;23.198;2024-03-22T00:38:23;7.25;;;3.25;;
84834;SDS011;75078;42.636;23.198;2024-03-22T00:40:49;26.92;;;7.65;;
84834;SDS011;75078;42.636;23.198;2024-03-22T00:43:14;24.13;;;7.07;;
84834;SDS011;75078;42.636;23.198;2024-03-22T00:45:39;26.25;;;8.77;;
84834;SDS011;75078;42.636;23.198;2024-03-22T00:48:05;37.13;;;10.85;;
84834;SDS011;75078;42.636;23.198;2024-03-22T00:50:30;21.40;;;8.32;;
84834;SDS011;75078;42.636;23.198;2024-03-22T00:52:56;25.15;;;10.07;;
84834;SDS011;75078;42.636;23.198;2024-03-22T00:55:21;18.48;;;7.82;;
84834;SDS011;75078;42.636;23.198;2024-03-22T00:57:47;14.15;;;6.70;;
84834;SDS011;75078;42.636;23.198;2024-03-22T01:00:12;5.30;;;4.00;;
84834;SDS011;75078;42.636;23.198;2024-03-22T01:02:39;3.05;;;2.85;;
84834;SDS011;75078;42.636;23.198;2024-03-22T01:05:05;2.92;;;2.42;;
84834;SDS011;75078;42.636;23.198;2024-03-22T01:07:30;6.38;;;3.10;;
84834;SDS011;75078;42.636;23.198;2024-03-22T01:09:55;5.07;;;3.60;;
84834;SDS011;75078;42.636;23.198;2024-03-22T01:12:21;3.92;;;3.35;;
84834;SDS011;75078;42.636;23.198;2024-03-22T01:14:46;5.88;;;3.35;;
84834;SDS011;75078;42.636;23.198;2024-03-22T01:17:11;5.38;;;4.00;;
84834;SDS011;75078;42.636;23.198;2024-03-22T01:19:37;5.82;;;4.22;;
84834;SDS011;75078;42.636;23.198;2024-03-22T01:22:02;6.70;;;4.78;;
84834;SDS011;75078;42.636;23.198;2024-03-22T01:24:27;7.32;;;4.03;;
84834;SDS011;75078;42.636;23.198;2024-03-22T01:26:53;5.05;;;4.55;;
84834;SDS011;75078;42.636;23.198;2024-03-22T01:29:18;7.78;;;5.30;;
84834;SDS011;75078;42.636;23.198;2024-03-22T01:31:44;11.57;;;4.90;;
84834;SDS011;75078;42.636;23.198;2024-03-22T01:34:09;7.43;;;4.43;;
84834;SDS011;75078;42.636;23.198;2024-03-22T01:36:34;4.38;;;3.97;;
84834;SDS011;75078;42.636;23.198;2024-03-22T01:39:00;5.07;;;4.35;;
84834;SDS011;75078;42.636;23.198;2024-03-22T01:41:25;5.65;;;4.35;;
84834;SDS011;75078;42.636;23.198;2024-03-22T01:43:50;6.03;;;3.95;;
84834;SDS011;75078;42.636;23.198;2024-03-22T01:46:16;3.72;;;3.42;;
84834;SDS011;75078;42.636;23.198;2024-03-22T01:48:41;6.65;;;4.40;;
84834;SDS011;75078;42.636;23.198;2024-03-22T01:51:06;4.90;;;3.63;;
84834;SDS011;75078;42.636;23.198;2024-03-22T01:53:34;4.57;;;4.13;;
84834;SDS011;75078;42.636;23.198;2024-03-22T01:56:00;5.50;;;3.53;;
84834;SDS011;75078;42.636;23.198;2024-03-22T01:58:26;4.25;;;3.85;;
84834;SDS011;75078;42.636;23.198;2024-03-22T02:00:52;5.35;;;3.65;;
84834;SDS011;75078;42.636;23.198;2024-03-22T02:03:17;7.05;;;3.40;;
84834;SDS011;75078;42.636;23.198;2024-03-22T02:05:42;3.50;;;3.08;;
84834;SDS011;75078;42.636;23.198;2024-03-22T02:08:08;5.75;;;3.33;;
84834;SDS011;75078;42.636;23.198;2024-03-22T02:10:33;6.47;;;4.03;;
84834;SDS011;75078;42.636;23.198;2024-03-22T02:12:58;9.02;;;4.50;;
84834;SDS011;75078;42.636;23.198;2024-03-22T02:15:24;5.85;;;4.68;;
84834;SDS011;75078;42.636;23.198;2024-03-22T02:17:49;7.28;;;4.20;;
84834;SDS011;75078;42.636;23.198;2024-03-22T02:20:14;3.60;;;3.00;;
84834;SDS011;75078;42.636;23.198;2024-03-22T02:22:40;6.65;;;4.03;;
84834;SDS011;75078;42.636;23.198;2024-03-22T02:25:06;6.75;;;3.50;;
84834;SDS011;75078;42.636;23.198;2024-03-22T02:27:32;6.95;;;3.55;;
84834;SDS011;75078;42.636;23.198;2024-03-22T02:29:58;25.55;;;6.53;;
84834;SDS011;75078;42.636;23.198;2024-03-22T02:32:23;93.85;;;22.08;;
84834;SDS011;75078;42.636;23.198;2024-03-22T02:34:49;53.47;;;19.13;;
84834;SDS011;75078;42.636;23.198;2024-03-22T02:37:14;55.22;;;18.42;;
84834;SDS011;75078;42.636;23.198;2024-03-22T02:39:39;42.30;;;14.45;;
84834;SDS011;75078;42.636;23.198;2024-03-22T02:42:05;22.70;;;9.77;;
84834;SDS011;75078;42.636;23.198;2024-03-22T02:44:30;17.65;;;6.78;;
84834;SDS011;75078;42.636;23.198;2024-03-22T02:46:55;6.18;;;4.65;;
84834;SDS011;75078;42.636;23.198;2024-03-22T02:49:21;9.65;;;5.20;;
84834;SDS011;75078;42.636;23.198;2024-03-22T02:51:46;9.82;;;6.05;;
84834;SDS011;75078;42.636;23.198;2024-03-22T02:54:12;8.50;;;4.55;;
84834;SDS011;75078;42.636;23.198;2024-03-22T02:56:37;4.38;;;3.75;;
84834;SDS011;75078;42.636;23.198;2024-03-22T02:59:02;9.43;;;4.38;;
84834;SDS011;75078;42.636;23.198;2024-03-22T03:01:28;16.40;;;7.15;;
84834;SDS011;75078;42.636;23.198;2024-03-22T03:03:53;38.58;;;10.63;;
84834;SDS011;75078;42.636;23.198;2024-03-22T03:06:18;66.38;;;13.27;;
84834;SDS011;75078;42.636;23.198;2024-03-22T03:08:45;17.05;;;6.82;;
84834;SDS011;75078;42.636;23.198;2024-03-22T03:11:10;6.38;;;4.78;;
84834;SDS011;75078;42.636;23.198;2024-03-22T03:13:35;12.25;;;4.72;;
84834;SDS011;75078;42.636;23.198;2024-03-22T03:16:02;13.98;;;6.40;;
84834;SDS011;75078;42.636;23.198;2024-03-22T03:18:28;8.43;;;4.47;;
84834;SDS011;75078;42.636;23.198;2024-03-22T03:20:53;13.52;;;5.47;;
84834;SDS011;75078;42.636;23.198;2024-03-22T03:23:19;10.35;;;5.18;;
84834;SDS011;75078;42.636;23.198;2024-03-22T03:25:44;6.57;;;4.60;;
84834;SDS011;75078;42.636;23.198;2024-03-22T03:28:11;6.97;;;4.13;;
84834;SDS011;75078;42.636;23.198;2024-03-22T03:30:37;5.03;;;3.30;;
84834;SDS011;75078;42.636;23.198;2024-03-22T03:33:03;6.57;;;3.63;;
84834;SDS011;75078;42.636;23.198;2024-03-22T03:35:28;5.90;;;4.82;;
84834;SDS011;75078;42.636;23.198;2024-03-22T03:37:54;6.32;;;3.78;;
84834;SDS011;75078;42.636;23.198;2024-03-22T03:40:19;4.60;;;3.67;;
84834;SDS011;75078;42.636;23.198;2024-03-22T03:42:46;3.90;;;3.40;;
84834;SDS011;75078;42.636;23.198;2024-03-22T03:45:12;4.75;;;3.85;;
84834;SDS011;75078;42.636;23.198;2024-03-22T03:47:37;5.15;;;3.35;;
84834;SDS011;75078;42.636;23.198;2024-03-22T03:50:03;6.45;;;2.97;;
84834;SDS011;75078;42.636;23.198;2024-03-22T03:52:28;5.88;;;4.00;;
84834;SDS011;75078;42.636;23.198;2024-03-22T03:54:54;5.15;;;3.42;;
84834;SDS011;75078;42.636;23.198;2024-03-22T03:57:19;5.80;;;4.03;;
84834;SDS011;75078;42.636;23.198;2024-03-22T03:59:44;4.85;;;4.18;;
84834;SDS011;75078;42.636;23.198;2024-03-22T04:02:09;4.38;;;3.05;;
84834;SDS011;75078;42.636;23.198;2024-03-22T04:04:35;4.30;;;3.85;;
84834;SDS011;75078;42.636;23.198;2024-03-22T04:07:01;6.68;;;3.85;;
84834;SDS011;75078;42.636;23.198;2024-03-22T04:09:26;4.15;;;3.75;;
84834;SDS011;75078;42.636;23.198;2024-03-22T04:11:51;6.43;;;3.70;;
84834;SDS011;75078;42.636;23.198;2024-03-22T04:14:16;5.03;;;4.13;;
84834;SDS011;75078;42.636;23.198;2024-03-22T04:16:42;5.10;;;3.95;;
84834;SDS011;75078;42.636;23.198;2024-03-22T04:19:07;4.93;;;3.72;;
84834;SDS011;75078;42.636;23.198;2024-03-22T04:21:32;5.03;;;3.92;;
84834;SDS011;75078;42.636;23.198;2024-03-22T04:23:58;5.90;;;3.90;;
84834;SDS011;75078;42.636;23.198;2024-03-22T04:26:23;5.10;;;3.80;;
84834;SDS011;75078;42.636;23.198;2024-03-22T04:28:49;4.40;;;3.55;;
84834;SDS011;75078;42.636;23.198;2024-03-22T04:31:14;6.25;;;4.32;;
84834;SDS011;75078;42.636;23.198;2024-03-22T04:33:40;4.85;;;3.60;;
84834;SDS011;75078;42.636;23.198;2024-03-22T04:36:06;8.93;;;4.30;;
84834;SDS011;75078;42.636;23.198;2024-03-22T04:38:31;8.43;;;4.97;;
84834;SDS011;75078;42.636;23.198;2024-03-22T04:40:57;6.78;;;4.75;;
84834;SDS011;75078;42.636;23.198;2024-03-22T04:43:23;6.88;;;4.68;;
84834;SDS011;75078;42.636;23.198;2024-03-22T04:45:49;5.32;;;4.47;;
84834;SDS011;75078;42.636;23.198;2024-03-22T04:48:20;7.72;;;5.10;;
84834;SDS011;75078;42.636;23.198;2024-03-22T04:50:46;5.55;;;4.45;;
84834;SDS011;75078;42.636;23.198;2024-03-22T04:53:14;4.55;;;4.13;;
84834;SDS011;75078;42.636;23.198;2024-03-22T04:55:40;3.70;;;3.13;;
84834;SDS011;75078;42.636;23.198;2024-03-22T04:58:10;4.68;;;4.28;;
84834;SDS011;75078;42.636;23.198;2024-03-22T05:00:42;4.28;;;3.88;;
84834;SDS011;75078;42.636;23.198;2024-03-22T05:03:08;4.78;;;3.80;;
84834;SDS011;75078;42.636;23.198;2024-03-22T05:05:34;5.15;;;3.50;;
84834;SDS011;75078;42.636;23.198;2024-03-22T05:08:00;4.22;;;3.88;;
84834;SDS011;75078;42.636;23.198;2024-03-22T05:10:26;7.05;;;4.20;;
84834;SDS011;75078;42.636;23.198;2024-03-22T05:12:52;4.90;;;3.70;;
84834;SDS011;75078;42.636;23.198;2024-03-22T05:15:17;12.15;;;4.68;;
84834;SDS011;75078;42.636;23.198;2024-03-22T05:17:42;3.92;;;3.50;;
84834;SDS011;75078;42.636;23.198;2024-03-22T05:20:08;5.13;;;4.65;;
84834;SDS011;75078;42.636;23.198;2024-03-22T05:22:36;6.35;;;3.92;;
84834;SDS011;75078;42.636;23.198;2024-03-22T05:25:02;6.63;;;4.85;;
84834;SDS011;75078;42.636;23.198;2024-03-22T05:27:28;6.15;;;4.65;;
84834;SDS011;75078;42.636;23.198;2024-03-22T05:29:54;8.23;;;4.50;;
84834;SDS011;75078;42.636;23.198;2024-03-22T05:32:19;7.95;;;4.55;;
84834;SDS011;75078;42.636;23.198;2024-03-22T05:34:44;10.32;;;4.47;;
84834;SDS011;75078;42.636;23.198;2024-03-22T05:37:09;6.00;;;4.90;;
84834;SDS011;75078;42.636;23.198;2024-03-22T05:39:36;7.72;;;5.18;;
84834;SDS011;75078;42.636;23.198;2024-03-22T05:42:01;7.78;;;4.63;;
84834;SDS011;75078;42.636;23.198;2024-03-22T05:44:26;7.47;;;4.82;;
84834;SDS011;75078;42.636;23.198;2024-03-22T05:46:52;7.82;;;4.50;;
84834;SDS011;75078;42.636;23.198;2024-03-22T05:49:17;8.70;;;4.90;;
84834;SDS011;75078;42.636;23.198;2024-03-22T05:51:43;12.63;;;5.93;;
84834;SDS011;75078;42.636;23.198;2024-03-22T05:54:08;8.48;;;5.35;;
84834;SDS011;75078;42.636;23.198;2024-03-22T05:56:33;10.65;;;5.63;;
84834;SDS011;75078;42.636;23.198;2024-03-22T05:58:59;7.05;;;4.78;;
84834;SDS011;75078;42.636;23.198;2024-03-22T06:01:24;8.13;;;5.10;;
84834;SDS011;75078;42.636;23.198;2024-03-22T06:03:50;8.23;;;4.85;;
84834;SDS011;75078;42.636;23.198;2024-03-22T06:06:15;11.23;;;5.43;;
84834;SDS011;75078;42.636;23.198;2024-03-22T06:08:41;10.38;;;5.35;;
84834;SDS011;75078;42.636;23.198;2024-03-22T06:11:08;13.15;;;6.95;;
84834;SDS011;75078;42.636;23.198;2024-03-22T06:13:34;8.68;;;5.97;;
84834;SDS011;75078;42.636;23.198;2024-03-22T06:16:01;7.82;;;5.50;;
84834;SDS011;75078;42.636;23.198;2024-03-22T06:18:26;7.25;;;5.53;;
84834;SDS011;75078;42.636;23.198;2024-03-22T06:20:52;9.48;;;6.22;;
84834;SDS011;75078;42.636;23.198;2024-03-22T06:23:19;7.22;;;5.20;;
84834;SDS011;75078;42.636;23.198;2024-03-22T06:25:51;7.47;;;4.78;;
84834;SDS011;75078;42.636;23.198;2024-03-22T06:28:17;10.18;;;6.03;;
84834;SDS011;75078;42.636;23.198;2024-03-22T06:30:43;8.77;;;4.95;;
84834;SDS011;75078;42.636;23.198;2024-03-22T06:33:08;8.52;;;5.90;;
84834;SDS011;75078;42.636;23.198;2024-03-22T06:35:33;7.80;;;5.00;;
84834;SDS011;75078;42.636;23.198;2024-03-22T06:37:59;10.35;;;5.68;;
84834;SDS011;75078;42.636;23.198;2024-03-22T06:40:27;8.52;;;5.00;;
84834;SDS011;75078;42.636;23.198;2024-03-22T06:42:53;5.57;;;5.07;;
84834;SDS011;75078;42.636;23.198;2024-03-22T06:45:18;8.07;;;5.00;;
84834;SDS011;75078;42.636;23.198;2024-03-22T06:47:43;7.88;;;4.43;;
84834;SDS011;75078;42.636;23.198;2024-03-22T06:50:09;64.53;;;19.35;;
84834;SDS011;75078;42.636;23.198;2024-03-22T06:52:36;7.68;;;5.20;;
84834;SDS011;75078;42.636;23.198;2024-03-22T06:55:01;8.50;;;5.40;;
84834;SDS011;75078;42.636;23.198;2024-03-22T06:57:27;8.38;;;5.63;;
84834;SDS011;75078;42.636;23.198;2024-03-22T06:59:53;12.55;;;6.05;;
84834;SDS011;75078;42.636;23.198;2024-03-22T07:02:18;8.20;;;5.60;;
84834;SDS011;75078;42.636;23.198;2024-03-22T07:04:44;10.52;;;6.60;;
84834;SDS011;75078;42.636;23.198;2024-03-22T07:07:09;10.65;;;6.28;;
84834;SDS011;75078;42.636;23.198;2024-03-22T07:09:34;9.32;;;5.78;;
84834;SDS011;75078;42.636;23.198;2024-03-22T07:12:01;9.23;;;7.43;;
84834;SDS011;75078;42.636;23.198;2024-03-22T07:14:26;9.38;;;6.35;;
84834;SDS011;75078;42.636;23.198;2024-03-22T07:16:51;13.07;;;6.95;;
84834;SDS011;75078;42.636;23.198;2024-03-22T07:19:19;9.38;;;6.00;;
84834;SDS011;75078;42.636;23.198;2024-03-22T07:21:47;12.77;;;5.93;;
84834;SDS011;75078;42.636;23.198;2024-03-22T07:24:13;9.38;;;6.38;;
84834;SDS011;75078;42.636;23.198;2024-03-22T07:26:38;10.05;;;6.65;;
84834;SDS011;75078;42.636;23.198;2024-03-22T07:29:04;10.45;;;7.10;;
84834;SDS011;75078;42.636;23.198;2024-03-22T07:31:29;11.77;;;7.60;;
84834;SDS011;75078;42.636;23.198;2024-03-22T07:33:54;11.05;;;6.22;;
84834;SDS011;75078;42.636;23.198;2024-03-22T07:36:20;11.90;;;6.93;;
84834;SDS011;75078;42.636;23.198;2024-03-22T07:38:46;11.35;;;6.55;;
84834;SDS011;75078;42.636;23.198;2024-03-22T07:41:11;11.30;;;6.90;;
84834;SDS011;75078;42.636;23.198;2024-03-22T07:43:37;9.65;;;6.15;;
84834;SDS011;75078;42.636;23.198;2024-03-22T07:46:02;10.20;;;5.07;;
84834;SDS011;75078;42.636;23.198;2024-03-22T07:48:27;8.32;;;5.35;;
84834;SDS011;75078;42.636;23.198;2024-03-22T07:50:59;6.95;;;5.22;;
84834;SDS011;75078;42.636;23.198;2024-03-22T07:53:25;8.40;;;6.00;;
84834;SDS011;75078;42.636;23.198;2024-03-22T07:55:51;6.80;;;4.88;;
84834;SDS011;75078;42.636;23.198;2024-03-22T07:58:16;7.80;;;5.82;;
84834;SDS011;75078;42.636;23.198;2024-03-22T08:00:42;7.25;;;5.72;;
84834;SDS011;75078;42.636;23.198;2024-03-22T08:03:07;10.25;;;6.80;;
84834;SDS011;75078;42.636;23.198;2024-03-22T08:05:38;9.15;;;6.57;;
84834;SDS011;75078;42.636;23.198;2024-03-22T08:08:04;11.05;;;5.78;;
84834;SDS011;75078;42.636;23.198;2024-03-22T08:10:29;10.80;;;7.13;;
84834;SDS011;75078;42.636;23.198;2024-03-22T08:12:55;10.57;;;7.10;;
84834;SDS011;75078;42.636;23.198;2024-03-22T08:15:20;11.88;;;6.88;;
84834;SDS011;75078;42.636;23.198;2024-03-22T08:17:46;8.05;;;6.30;;
84834;SDS011;75078;42.636;23.198;2024-03-22T08:20:11;11.93;;;7.13;;
84834;SDS011;75078;42.636;23.198;2024-03-22T08:22:36;12.60;;;6.38;;
84834;SDS011;75078;42.636;23.198;2024-03-22T08:25:02;8.45;;;5.75;;
84834;SDS011;75078;42.636;23.198;2024-03-22T08:27:29;7.82;;;5.10;;
84834;SDS011;75078;42.636;23.198;2024-03-22T08:29:54;11.95;;;6.22;;
84834;SDS011;75078;42.636;23.198;2024-03-22T08:32:19;7.97;;;5.05;;
84834;SDS011;75078;42.636;23.198;2024-03-22T08:34:45;11.65;;;4.82;;
84834;SDS011;75078;42.636;23.198;2024-03-22T08:37:11;5.82;;;4.18;;
84834;SDS011;75078;42.636;23.198;2024-03-22T08:39:36;4.85;;;3.17;;
84834;SDS011;75078;42.636;23.198;2024-03-22T08:42:01;5.35;;;3.63;;
84834;SDS011;75078;42.636;23.198;2024-03-22T08:44:30;5.50;;;4.00;;
84834;SDS011;75078;42.636;23.198;2024-03-22T08:46:55;6.00;;;3.80;;
84834;SDS011;75078;42.636;23.198;2024-03-22T08:49:20;5.88;;;4.13;;
84834;SDS011;75078;42.636;23.198;2024-03-22T08:51:46;5.63;;;4.50;;
84834;SDS011;75078;42.636;23.198;2024-03-22T08:54:13;5.38;;;4.78;;
84834;SDS011;75078;42.636;23.198;2024-03-22T08:56:38;4.72;;;4.20;;
84834;SDS011;75078;42.636;23.198;2024-03-22T08:59:04;7.25;;;3.75;;
84834;SDS011;75078;42.636;23.198;2024-03-22T09:01:29;3.38;;;2.95;;
84834;SDS011;75078;42.636;23.198;2024-03-22T09:03:54;3.63;;;3.05;;
84834;SDS011;75078;42.636;23.198;2024-03-22T09:06:19;4.00;;;3.42;;
84834;SDS011;75078;42.636;23.198;2024-03-22T09:08:45;5.47;;;3.35;;
84834;SDS011;75078;42.636;23.198;2024-03-22T09:11:11;6.78;;;3.80;;
84834;SDS011;75078;42.636;23.198;2024-03-22T09:13:36;5.55;;;3.45;;
84834;SDS011;75078;42.636;23.198;2024-03-22T09:16:01;4.93;;;3.83;;
84834;SDS011;75078;42.636;23.198;2024-03-22T09:18:27;7.35;;;3.90;;
84834;SDS011;75078;42.636;23.198;2024-03-22T09:20:53;3.25;;;2.97;;
84834;SDS011;75078;42.636;23.198;2024-03-22T09:23:18;6.65;;;3.75;;
84834;SDS011;75078;42.636;23.198;2024-03-22T09:25:45;4.07;;;3.67;;
84834;SDS011;75078;42.636;23.198;2024-03-22T09:28:13;4.47;;;2.85;;
84834;SDS011;75078;42.636;23.198;2024-03-22T09:30:41;5.28;;;4.25;;
84834;SDS011;75078;42.636;23.198;2024-03-22T09:33:08;3.83;;;3.03;;
84834;SDS011;75078;42.636;23.198;2024-03-22T09:35:34;6.28;;;3.38;;
84834;SDS011;75078;42.636;23.198;2024-03-22T09:37:59;4.22;;;3.60;;
84834;SDS011;75078;42.636;23.198;2024-03-22T09:40:25;4.93;;;4.45;;
84834;SDS011;75078;42.636;23.198;2024-03-22T09:42:50;3.38;;;2.63;;
84834;SDS011;75078;42.636;23.198;2024-03-22T09:45:18;4.43;;;3.00;;
84834;SDS011;75078;42.636;23.198;2024-03-22T09:47:45;7.10;;;3.15;;
84834;SDS011;75078;42.636;23.198;2024-03-22T09:50:11;3.47;;;3.05;;
84834;SDS011;75078;42.636;23.198;2024-03-22T09:52:38;5.00;;;3.35;;
84834;SDS011;75078;42.636;23.198;2024-03-22T09:55:05;5.93;;;3.72;;
84834;SDS011;75078;42.636;23.198;2024-03-22T09:57:31;3.30;;;3.03;;
84834;SDS011;75078;42.636;23.198;2024-03-22T09:59:57;25.25;;;10.65;;
84834;SDS011;75078;42.636;23.198;2024-03-22T10:02:22;4.43;;;3.75;;
84834;SDS011;75078;42.636;23.198;2024-03-22T10:04:48;5.90;;;3.28;;
84834;SDS011;75078;42.636;23.198;2024-03-22T10:07:16;3.17;;;2.85;;
84834;SDS011;75078;42.636;23.198;2024-03-22T10:09:41;3.35;;;3.05;;
84834;SDS011;75078;42.636;23.198;2024-03-22T10:12:08;3.58;;;3.28;;
84834;SDS011;75078;42.636;23.198;2024-03-22T10:14:33;3.83;;;3.53;;
84834;SDS011;75078;42.636;23.198;2024-03-22T10:17:01;3.35;;;3.05;;
84834;SDS011;75078;42.636;23.198;2024-03-22T10:19:27;3.47;;;3.17;;
84834;SDS011;75078;42.636;23.198;2024-03-22T10:22:02;3.80;;;3.50;;
84834;SDS011;75078;42.636;23.198;2024-03-22T10:24:28;3.55;;;3.25;;
84834;SDS011;75078;42.636;23.198;2024-03-22T10:26:54;5.57;;;3.90;;
84834;SDS011;75078;42.636;23.198;2024-03-22T10:29:20;4.72;;;3.33;;
84834;SDS011;75078;42.636;23.198;2024-03-22T10:31:47;12.38;;;5.93;;
84834;SDS011;75078;42.636;23.198;2024-03-22T10:34:13;4.75;;;3.58;;
84834;SDS011;75078;42.636;23.198;2024-03-22T10:36:40;5.25;;;3.33;;
84834;SDS011;75078;42.636;23.198;2024-03-22T10:39:06;3.83;;;2.88;;
84834;SDS011;75078;42.636;23.198;2024-03-22T10:41:33;4.10;;;3.60;;
84834;SDS011;75078;42.636;23.198;2024-03-22T10:43:58;4.05;;;3.20;;
84834;SDS011;75078;42.636;23.198;2024-03-22T10:46:27;3.38;;;2.40;;
84834;SDS011;75078;42.636;23.198;2024-03-22T10:48:54;4.53;;;3.40;;
84834;SDS011;75078;42.636;23.198;2024-03-22T10:51:20;3.70;;;2.88;;
84834;SDS011;75078;42.636;23.198;2024-03-22T10:53:48;3.50;;;3.30;;
84834;SDS011;75078;42.636;23.198;2024-03-22T10:56:15;3.97;;;2.83;;
84834;SDS011;75078;42.636;23.198;2024-03-22T10:58:42;2.85;;;2.45;;
84834;SDS011;75078;42.636;23.198;2024-03-22T11:01:11;3.47;;;3.17;;
84834;SDS011;75078;42.636;23.198;2024-03-22T11:04:08;4.10;;;2.60;;
84834;SDS011;75078;42.636;23.198;2024-03-22T11:06:36;4.25;;;2.60;;
84834;SDS011;75078;42.636;23.198;2024-03-22T11:09:02;2.75;;;2.55;;
84834;SDS011;75078;42.636;23.198;2024-03-22T11:11:30;5.45;;;3.30;;
84834;SDS011;75078;42.636;23.198;2024-03-22T11:14:02;3.60;;;3.30;;
84834;SDS011;75078;42.636;23.198;2024-03-22T11:16:28;3.38;;;2.60;;
84834;SDS011;75078;42.636;23.198;2024-03-22T11:18:54;2.65;;;2.45;;
84834;SDS011;75078;42.636;23.198;2024-03-22T11:21:20;2.40;;;2.08;;
84834;SDS011;75078;42.636;23.198;2024-03-22T11:23:45;3.05;;;2.75;;
84834;SDS011;75078;42.636;23.198;2024-03-22T11:26:11;3.97;;;3.67;;
84834;SDS011;75078;42.636;23.198;2024-03-22T11:28:37;2.95;;;2.75;;
84834;SDS011;75078;42.636;23.198;2024-03-22T11:31:03;3.45;;;3.03;;
84834;SDS011;75078;42.636;23.198;2024-03-22T11:33:29;3.05;;;2.47;;
84834;SDS011;75078;42.636;23.198;2024-03-22T11:35:57;14.27;;;8.50;;
84834;SDS011;75078;42.636;23.198;2024-03-22T11:38:23;3.72;;;3.38;;
84834;SDS011;75078;42.636;23.198;2024-03-22T11:40:51;2.60;;;2.40;;
84834;SDS011;75078;42.636;23.198;2024-03-22T11:43:18;2.67;;;2.47;;
84834;SDS011;75078;42.636;23.198;2024-03-22T11:45:43;2.60;;;2.40;;
84834;SDS011;75078;42.636;23.198;2024-03-22T11:48:09;4.05;;;2.83;;
84834;SDS011;75078;42.636;23.198;2024-03-22T11:50:36;2.78;;;2.50;;
84834;SDS011;75078;42.636;23.198;2024-03-22T11:53:02;7.95;;;2.67;;
84834;SDS011;75078;42.636;23.198;2024-03-22T11:55:30;5.85;;;2.67;;
84834;SDS011;75078;42.636;23.198;2024-03-22T11:57:57;3.28;;;3.08;;
84834;SDS011;75078;42.636;23.198;2024-03-22T12:00:22;3.33;;;3.10;;
84834;SDS011;75078;42.636;23.198;2024-03-22T12:02:50;2.70;;;2.50;;
84834;SDS011;75078;42.636;23.198;2024-03-22T12:05:15;3.75;;;3.45;;
84834;SDS011;75078;42.636;23.198;2024-03-22T12:07:42;22.88;;;8.60;;
84834;SDS011;75078;42.636;23.198;2024-03-22T12:10:07;3.25;;;2.97;;
84834;SDS011;75078;42.636;23.198;2024-03-22T12:12:33;4.38;;;3.65;;
84834;SDS011;75078;42.636;23.198;2024-03-22T12:14:58;3.10;;;2.90;;
84834;SDS011;75078;42.636;23.198;2024-03-22T12:17:23;4.38;;;3.00;;
84834;SDS011;75078;42.636;23.198;2024-03-22T12:19:49;4.25;;;3.35;;
84834;SDS011;75078;42.636;23.198;2024-03-22T12:22:14;4.30;;;3.05;;
84834;SDS011;75078;42.636;23.198;2024-03-22T12:24:39;5.40;;;3.17;;
84834;SDS011;75078;42.636;23.198;2024-03-22T12:27:05;4.57;;;3.30;;
84834;SDS011;75078;42.636;23.198;2024-03-22T12:29:33;3.65;;;3.35;;
84834;SDS011;75078;42.636;23.198;2024-03-22T12:31:59;4.82;;;2.70;;
84834;SDS011;75078;42.636;23.198;2024-03-22T12:34:31;5.70;;;2.90;;
84834;SDS011;75078;42.636;23.198;2024-03-22T12:36:58;3.03;;;2.67;;
84834;SDS011;75078;42.636;23.198;2024-03-22T12:39:23;10.80;;;5.38;;
84834;SDS011;75078;42.636;23.198;2024-03-22T12:41:49;3.80;;;2.60;;
84834;SDS011;75078;42.636;23.198;2024-03-22T12:44:15;5.97;;;2.75;;
84834;SDS011;75078;42.636;23.198;2024-03-22T12:46:40;5.30;;;2.80;;
84834;SDS011;75078;42.636;23.198;2024-03-22T12:49:09;3.22;;;3.03;;
84834;SDS011;75078;42.636;23.198;2024-03-22T12:51:35;4.05;;;2.50;;
84834;SDS011;75078;42.636;23.198;2024-03-22T12:54:01;3.58;;;3.28;;
84834;SDS011;75078;42.636;23.198;2024-03-22T12:56:26;4.28;;;3.42;;
84834;SDS011;75078;42.636;23.198;2024-03-22T12:58:52;2.67;;;2.45;;
84834;SDS011;75078;42.636;23.198;2024-03-22T13:01:17;4.03;;;2.65;;
84834;SDS011;75078;42.636;23.198;2024-03-22T13:03:42;3.17;;;2.85;;
84834;SDS011;75078;42.636;23.198;2024-03-22T13:06:08;3.38;;;3.08;;
84834;SDS011;75078;42.636;23.198;2024-03-22T13:08:33;3.95;;;3.45;;
84834;SDS011;75078;42.636;23.198;2024-03-22T13:10:58;4.25;;;2.45;;
84834;SDS011;75078;42.636;23.198;2024-03-22T13:13:24;3.60;;;3.30;;
84834;SDS011;75078;42.636;23.198;2024-03-22T13:15:49;2.85;;;2.45;;
84834;SDS011;75078;42.636;23.198;2024-03-22T13:18:14;3.47;;;3.17;;
84834;SDS011;75078;42.636;23.198;2024-03-22T13:20:40;3.38;;;3.08;;
84834;SDS011;75078;42.636;23.198;2024-03-22T13:23:06;5.18;;;3.20;;
84834;SDS011;75078;42.636;23.198;2024-03-22T13:25:33;3.63;;;3.33;;
84834;SDS011;75078;42.636;23.198;2024-03-22T13:28:00;3.05;;;2.75;;
84834;SDS011;75078;42.636;23.198;2024-03-22T13:30:25;2.50;;;2.30;;
84834;SDS011;75078;42.636;23.198;2024-03-22T13:32:50;3.75;;;3.35;;
84834;SDS011;75078;42.636;23.198;2024-03-22T13:35:16;4.00;;;3.33;;
84834;SDS011;75078;42.636;23.198;2024-03-22T13:37:41;4.65;;;2.40;;
84834;SDS011;75078;42.636;23.198;2024-03-22T13:40:07;3.55;;;3.25;;
84834;SDS011;75078;42.636;23.198;2024-03-22T13:42:32;2.95;;;2.75;;
84834;SDS011;75078;42.636;23.198;2024-03-22T13:44:58;3.70;;;2.78;;
84834;SDS011;75078;42.636;23.198;2024-03-22T13:47:24;4.32;;;3.33;;
84834;SDS011;75078;42.636;23.198;2024-03-22T13:49:51;3.15;;;2.03;;
84834;SDS011;75078;42.636;23.198;2024-03-22T13:52:17;3.03;;;2.72;;
84834;SDS011;75078;42.636;23.198;2024-03-22T13:54:43;4.05;;;2.92;;
84834;SDS011;75078;42.636;23.198;2024-03-22T13:57:08;5.57;;;3.75;;
84834;SDS011;75078;42.636;23.198;2024-03-22T13:59:34;3.53;;;3.25;;
84834;SDS011;75078;42.636;23.198;2024-03-22T14:02:01;3.03;;;2.72;;
84834;SDS011;75078;42.636;23.198;2024-03-22T14:04:26;6.20;;;3.72;;
84834;SDS011;75078;42.636;23.198;2024-03-22T14:06:51;3.35;;;2.80;;
84834;SDS011;75078;42.636;23.198;2024-03-22T14:09:17;2.72;;;2.53;;
84834;SDS011;75078;42.636;23.198;2024-03-22T14:11:43;2.92;;;2.58;;
84834;SDS011;75078;42.636;23.198;2024-03-22T14:14:11;3.60;;;2.80;;
84834;SDS011;75078;42.636;23.198;2024-03-22T14:16:40;3.60;;;3.30;;
84834;SDS011;75078;42.636;23.198;2024-03-22T14:19:09;3.60;;;3.00;;
84834;SDS011;75078;42.636;23.198;2024-03-22T14:21:34;5.28;;;2.83;;
84834;SDS011;75078;42.636;23.198;2024-03-22T14:23:59;4.38;;;2.63;;